sensor_id;sensor_type;location;lat;lon;timestamp;P1;durP1;ratioP1;P2;durP2;ratioP2
43152;SDS011;28756;49.064;9.290;2022-10-31T00:00:23;6.07;;;3.78;;
43152;SDS011;28756;49.064;9.290;2022-10-31T00:02:48;8.57;;;3.22;;
43152;SDS011;28756;49.064;9.290;2022-10-31T00:05:14;4.07;;;2.83;;
43152;SDS011;28756;49.064;9.290;2022-10-31T00:07:40;4.97;;;3.15;;
43152;SDS011;28756;49.064;9.290;2022-10-31T00:10:06;8.13;;;3.17;;
43152;SDS011;28756;49.064;9.290;2022-10-31T00:12:32;7.57;;;3.08;;
43152;SDS011;28756;49.064;9.290;2022-10-31T00:14:58;6.45;;;3.08;;
43152;SDS011;28756;49.064;9.290;2022-10-31T00:17:24;8.20;;;3.95;;
43152;SDS011;28756;49.064;9.290;2022-10-31T00:19:50;8.45;;;4.30;;
43152;SDS011;28756;49.064;9.290;2022-10-31T00:22:15;10.35;;;5.05;;
43152;SDS011;28756;49.064;9.290;2022-10-31T00:24:41;9.82;;;4.50;;
43152;SDS011;28756;49.064;9.290;2022-10-31T00:27:07;7.22;;;4.38;;
43152;SDS011;28756;49.064;9.290;2022-10-31T00:29:32;7.95;;;4.13;;
43152;SDS011;28756;49.064;9.290;2022-10-31T00:31:58;7.18;;;4.07;;
43152;SDS011;28756;49.064;9.290;2022-10-31T00:34:24;8.02;;;4.35;;
43152;SDS011;28756;49.064;9.290;2022-10-31T00:36:49;10.38;;;4.47;;
43152;SDS011;28756;49.064;9.290;2022-10-31T00:39:15;6.97;;;4.30;;
43152;SDS011;28756;49.064;9.290;2022-10-31T00:41:41;5.38;;;3.65;;
43152;SDS011;28756;49.064;9.290;2022-10-31T00:44:06;7.18;;;4.68;;
43152;SDS011;28756;49.064;9.290;2022-10-31T00:46:32;11.77;;;3.92;;
43152;SDS011;28756;49.064;9.290;2022-10-31T00:48:58;7.57;;;4.13;;
43152;SDS011;28756;49.064;9.290;2022-10-31T00:51:24;4.93;;;3.78;;
43152;SDS011;28756;49.064;9.290;2022-10-31T00:53:49;6.47;;;3.63;;
43152;SDS011;28756;49.064;9.290;2022-10-31T00:56:15;6.05;;;3.67;;
43152;SDS011;28756;49.064;9.290;2022-10-31T00:58:41;4.95;;;2.85;;
43152;SDS011;28756;49.064;9.290;2022-10-31T01:01:06;4.90;;;3.00;;
43152;SDS011;28756;49.064;9.290;2022-10-31T01:03:32;5.90;;;3.65;;
43152;SDS011;28756;49.064;9.290;2022-10-31T01:06:08;3.78;;;2.58;;
43152;SDS011;28756;49.064;9.290;2022-10-31T01:08:37;5.30;;;2.55;;
43152;SDS011;28756;49.064;9.290;2022-10-31T01:11:07;5.18;;;2.97;;
43152;SDS011;28756;49.064;9.290;2022-10-31T01:13:37;7.07;;;2.95;;
43152;SDS011;28756;49.064;9.290;2022-10-31T01:16:04;5.60;;;3.30;;
43152;SDS011;28756;49.064;9.290;2022-10-31T01:18:31;5.97;;;3.42;;
43152;SDS011;28756;49.064;9.290;2022-10-31T01:23:31;6.47;;;3.78;;
43152;SDS011;28756;49.064;9.290;2022-10-31T01:26:17;8.82;;;3.50;;
43152;SDS011;28756;49.064;9.290;2022-10-31T01:28:47;5.70;;;3.40;;
43152;SDS011;28756;49.064;9.290;2022-10-31T01:31:16;6.32;;;3.15;;
43152;SDS011;28756;49.064;9.290;2022-10-31T01:33:45;5.32;;;2.72;;
43152;SDS011;28756;49.064;9.290;2022-10-31T01:36:22;6.72;;;3.17;;
43152;SDS011;28756;49.064;9.290;2022-10-31T01:38:51;6.95;;;2.80;;
43152;SDS011;28756;49.064;9.290;2022-10-31T01:41:21;4.88;;;2.83;;
43152;SDS011;28756;49.064;9.290;2022-10-31T01:43:55;7.93;;;2.65;;
43152;SDS011;28756;49.064;9.290;2022-10-31T01:49:01;5.22;;;2.90;;
43152;SDS011;28756;49.064;9.290;2022-10-31T01:51:38;7.53;;;3.03;;
43152;SDS011;28756;49.064;9.290;2022-10-31T01:54:13;6.03;;;3.30;;
43152;SDS011;28756;49.064;9.290;2022-10-31T01:56:44;5.95;;;3.00;;
43152;SDS011;28756;49.064;9.290;2022-10-31T01:59:15;6.20;;;3.15;;
43152;SDS011;28756;49.064;9.290;2022-10-31T02:01:45;3.45;;;2.60;;
43152;SDS011;28756;49.064;9.290;2022-10-31T02:04:15;4.60;;;2.85;;
43152;SDS011;28756;49.064;9.290;2022-10-31T02:06:58;4.20;;;3.00;;
43152;SDS011;28756;49.064;9.290;2022-10-31T02:09:39;6.25;;;3.05;;
43152;SDS011;28756;49.064;9.290;2022-10-31T02:12:08;4.63;;;2.80;;
43152;SDS011;28756;49.064;9.290;2022-10-31T02:14:35;6.40;;;3.00;;
43152;SDS011;28756;49.064;9.290;2022-10-31T02:17:02;7.97;;;3.35;;
43152;SDS011;28756;49.064;9.290;2022-10-31T02:19:44;6.47;;;3.60;;
43152;SDS011;28756;49.064;9.290;2022-10-31T02:22:26;4.20;;;2.75;;
43152;SDS011;28756;49.064;9.290;2022-10-31T02:27:56;5.22;;;2.75;;
43152;SDS011;28756;49.064;9.290;2022-10-31T02:33:14;6.25;;;3.30;;
43152;SDS011;28756;49.064;9.290;2022-10-31T02:47:17;9.30;;;3.60;;
43152;SDS011;28756;49.064;9.290;2022-10-31T02:50:06;8.57;;;3.45;;
43152;SDS011;28756;49.064;9.290;2022-10-31T02:52:41;9.07;;;3.42;;
43152;SDS011;28756;49.064;9.290;2022-10-31T02:55:50;7.43;;;3.20;;
43152;SDS011;28756;49.064;9.290;2022-10-31T02:58:00;8.32;;;3.72;;
43152;SDS011;28756;49.064;9.290;2022-10-31T03:00:38;6.60;;;3.33;;
43152;SDS011;28756;49.064;9.290;2022-10-31T03:10:00;10.55;;;3.70;;
43152;SDS011;28756;49.064;9.290;2022-10-31T03:12:38;5.55;;;3.42;;
43152;SDS011;28756;49.064;9.290;2022-10-31T03:15:30;6.88;;;3.53;;
43152;SDS011;28756;49.064;9.290;2022-10-31T03:18:08;6.15;;;3.20;;
43152;SDS011;28756;49.064;9.290;2022-10-31T03:20:51;4.45;;;2.80;;
43152;SDS011;28756;49.064;9.290;2022-10-31T03:23:24;6.40;;;3.60;;
43152;SDS011;28756;49.064;9.290;2022-10-31T03:25:52;8.23;;;4.22;;
43152;SDS011;28756;49.064;9.290;2022-10-31T03:28:22;6.20;;;3.42;;
43152;SDS011;28756;49.064;9.290;2022-10-31T03:31:26;8.27;;;3.60;;
43152;SDS011;28756;49.064;9.290;2022-10-31T03:33:59;7.95;;;3.83;;
43152;SDS011;28756;49.064;9.290;2022-10-31T03:36:27;8.40;;;3.90;;
43152;SDS011;28756;49.064;9.290;2022-10-31T03:38:57;5.22;;;3.25;;
43152;SDS011;28756;49.064;9.290;2022-10-31T03:41:27;8.05;;;3.38;;
43152;SDS011;28756;49.064;9.290;2022-10-31T03:43:59;6.47;;;3.67;;
43152;SDS011;28756;49.064;9.290;2022-10-31T03:46:31;7.45;;;3.38;;
43152;SDS011;28756;49.064;9.290;2022-10-31T03:48:57;10.40;;;3.78;;
43152;SDS011;28756;49.064;9.290;2022-10-31T03:51:32;7.95;;;3.28;;
43152;SDS011;28756;49.064;9.290;2022-10-31T03:57:37;7.97;;;3.67;;
43152;SDS011;28756;49.064;9.290;2022-10-31T04:00:18;8.00;;;4.35;;
43152;SDS011;28756;49.064;9.290;2022-10-31T04:02:47;9.30;;;4.30;;
43152;SDS011;28756;49.064;9.290;2022-10-31T04:05:26;10.90;;;4.68;;
43152;SDS011;28756;49.064;9.290;2022-10-31T04:07:54;7.88;;;4.25;;
43152;SDS011;28756;49.064;9.290;2022-10-31T04:10:22;6.38;;;3.40;;
43152;SDS011;28756;49.064;9.290;2022-10-31T04:12:52;6.75;;;3.70;;
43152;SDS011;28756;49.064;9.290;2022-10-31T04:15:26;9.02;;;3.97;;
43152;SDS011;28756;49.064;9.290;2022-10-31T04:17:54;9.45;;;5.18;;
43152;SDS011;28756;49.064;9.290;2022-10-31T04:20:31;9.60;;;5.10;;
43152;SDS011;28756;49.064;9.290;2022-10-31T04:23:00;12.48;;;5.10;;
43152;SDS011;28756;49.064;9.290;2022-10-31T04:25:27;13.43;;;5.43;;
43152;SDS011;28756;49.064;9.290;2022-10-31T04:27:53;10.35;;;5.35;;
43152;SDS011;28756;49.064;9.290;2022-10-31T04:30:19;12.88;;;5.78;;
43152;SDS011;28756;49.064;9.290;2022-10-31T04:32:45;11.55;;;5.38;;
43152;SDS011;28756;49.064;9.290;2022-10-31T04:35:11;9.35;;;5.03;;
43152;SDS011;28756;49.064;9.290;2022-10-31T04:37:37;8.80;;;4.15;;
43152;SDS011;28756;49.064;9.290;2022-10-31T04:40:03;12.10;;;4.75;;
43152;SDS011;28756;49.064;9.290;2022-10-31T04:42:29;7.30;;;4.20;;
43152;SDS011;28756;49.064;9.290;2022-10-31T04:44:55;10.80;;;4.95;;
43152;SDS011;28756;49.064;9.290;2022-10-31T04:47:21;10.60;;;5.20;;
43152;SDS011;28756;49.064;9.290;2022-10-31T04:49:47;10.27;;;4.82;;
43152;SDS011;28756;49.064;9.290;2022-10-31T04:52:13;9.10;;;4.47;;
43152;SDS011;28756;49.064;9.290;2022-10-31T04:54:38;9.55;;;4.97;;
43152;SDS011;28756;49.064;9.290;2022-10-31T04:57:04;5.82;;;3.80;;
43152;SDS011;28756;49.064;9.290;2022-10-31T04:59:30;10.25;;;5.13;;
43152;SDS011;28756;49.064;9.290;2022-10-31T05:01:56;10.57;;;4.70;;
43152;SDS011;28756;49.064;9.290;2022-10-31T05:04:21;9.20;;;4.32;;
43152;SDS011;28756;49.064;9.290;2022-10-31T05:06:47;7.50;;;4.20;;
43152;SDS011;28756;49.064;9.290;2022-10-31T05:09:13;10.88;;;4.30;;
43152;SDS011;28756;49.064;9.290;2022-10-31T05:11:39;13.73;;;4.18;;
43152;SDS011;28756;49.064;9.290;2022-10-31T05:14:04;10.35;;;5.07;;
43152;SDS011;28756;49.064;9.290;2022-10-31T05:16:30;11.27;;;4.68;;
43152;SDS011;28756;49.064;9.290;2022-10-31T05:18:56;9.52;;;4.70;;
43152;SDS011;28756;49.064;9.290;2022-10-31T05:21:21;10.73;;;5.13;;
43152;SDS011;28756;49.064;9.290;2022-10-31T05:23:47;6.95;;;4.35;;
43152;SDS011;28756;49.064;9.290;2022-10-31T05:26:13;7.07;;;3.80;;
43152;SDS011;28756;49.064;9.290;2022-10-31T05:28:39;6.88;;;3.75;;
43152;SDS011;28756;49.064;9.290;2022-10-31T05:31:04;9.32;;;4.25;;
43152;SDS011;28756;49.064;9.290;2022-10-31T05:33:30;8.25;;;4.60;;
43152;SDS011;28756;49.064;9.290;2022-10-31T05:35:56;10.77;;;5.18;;
43152;SDS011;28756;49.064;9.290;2022-10-31T05:38:21;9.20;;;5.05;;
43152;SDS011;28756;49.064;9.290;2022-10-31T05:40:47;11.52;;;5.60;;
43152;SDS011;28756;49.064;9.290;2022-10-31T05:43:13;8.18;;;4.28;;
43152;SDS011;28756;49.064;9.290;2022-10-31T05:45:39;8.45;;;4.22;;
43152;SDS011;28756;49.064;9.290;2022-10-31T05:48:04;10.10;;;5.63;;
43152;SDS011;28756;49.064;9.290;2022-10-31T05:50:30;9.85;;;5.43;;
43152;SDS011;28756;49.064;9.290;2022-10-31T05:52:57;8.52;;;5.38;;
43152;SDS011;28756;49.064;9.290;2022-10-31T05:55:26;9.88;;;5.53;;
43152;SDS011;28756;49.064;9.290;2022-10-31T05:57:53;9.80;;;4.93;;
43152;SDS011;28756;49.064;9.290;2022-10-31T06:00:20;11.48;;;5.68;;
43152;SDS011;28756;49.064;9.290;2022-10-31T06:02:47;13.30;;;5.90;;
43152;SDS011;28756;49.064;9.290;2022-10-31T06:05:13;9.20;;;5.30;;
43152;SDS011;28756;49.064;9.290;2022-10-31T06:07:39;9.65;;;5.90;;
43152;SDS011;28756;49.064;9.290;2022-10-31T06:10:05;9.48;;;5.63;;
43152;SDS011;28756;49.064;9.290;2022-10-31T06:12:33;9.60;;;5.43;;
43152;SDS011;28756;49.064;9.290;2022-10-31T06:15:03;11.82;;;6.88;;
43152;SDS011;28756;49.064;9.290;2022-10-31T06:17:30;12.10;;;7.25;;
43152;SDS011;28756;49.064;9.290;2022-10-31T06:19:57;15.88;;;8.50;;
43152;SDS011;28756;49.064;9.290;2022-10-31T06:22:22;17.27;;;7.88;;
43152;SDS011;28756;49.064;9.290;2022-10-31T06:24:48;16.25;;;9.63;;
43152;SDS011;28756;49.064;9.290;2022-10-31T06:27:14;11.35;;;8.27;;
43152;SDS011;28756;49.064;9.290;2022-10-31T06:29:39;17.33;;;8.07;;
43152;SDS011;28756;49.064;9.290;2022-10-31T06:32:05;11.27;;;7.18;;
43152;SDS011;28756;49.064;9.290;2022-10-31T06:34:31;18.23;;;8.20;;
43152;SDS011;28756;49.064;9.290;2022-10-31T06:36:56;12.02;;;8.00;;
43152;SDS011;28756;49.064;9.290;2022-10-31T06:39:22;18.50;;;8.07;;
43152;SDS011;28756;49.064;9.290;2022-10-31T06:41:48;13.90;;;7.10;;
43152;SDS011;28756;49.064;9.290;2022-10-31T06:44:13;17.27;;;7.25;;
43152;SDS011;28756;49.064;9.290;2022-10-31T06:46:39;8.40;;;6.28;;
43152;SDS011;28756;49.064;9.290;2022-10-31T06:49:05;9.63;;;6.13;;
43152;SDS011;28756;49.064;9.290;2022-10-31T06:51:30;9.45;;;6.22;;
43152;SDS011;28756;49.064;9.290;2022-10-31T06:53:56;11.13;;;7.03;;
43152;SDS011;28756;49.064;9.290;2022-10-31T06:56:22;11.65;;;7.03;;
43152;SDS011;28756;49.064;9.290;2022-10-31T06:58:48;8.63;;;6.30;;
43152;SDS011;28756;49.064;9.290;2022-10-31T07:01:13;7.22;;;5.15;;
43152;SDS011;28756;49.064;9.290;2022-10-31T07:03:39;7.10;;;4.75;;
43152;SDS011;28756;49.064;9.290;2022-10-31T07:06:05;7.80;;;4.95;;
43152;SDS011;28756;49.064;9.290;2022-10-31T07:08:31;6.20;;;4.40;;
43152;SDS011;28756;49.064;9.290;2022-10-31T07:10:56;6.10;;;3.92;;
43152;SDS011;28756;49.064;9.290;2022-10-31T07:13:23;6.90;;;4.72;;
43152;SDS011;28756;49.064;9.290;2022-10-31T07:15:52;7.93;;;4.57;;
43152;SDS011;28756;49.064;9.290;2022-10-31T07:18:23;7.53;;;4.65;;
43152;SDS011;28756;49.064;9.290;2022-10-31T07:20:49;6.97;;;4.80;;
43152;SDS011;28756;49.064;9.290;2022-10-31T07:23:16;9.55;;;5.50;;
43152;SDS011;28756;49.064;9.290;2022-10-31T07:25:42;13.50;;;6.50;;
43152;SDS011;28756;49.064;9.290;2022-10-31T07:28:08;10.70;;;6.07;;
43152;SDS011;28756;49.064;9.290;2022-10-31T07:30:35;11.98;;;6.38;;
43152;SDS011;28756;49.064;9.290;2022-10-31T07:33:01;8.95;;;6.00;;
43152;SDS011;28756;49.064;9.290;2022-10-31T07:35:28;9.73;;;5.68;;
43152;SDS011;28756;49.064;9.290;2022-10-31T07:37:54;10.95;;;4.75;;
43152;SDS011;28756;49.064;9.290;2022-10-31T07:40:21;10.05;;;5.22;;
43152;SDS011;28756;49.064;9.290;2022-10-31T07:42:48;13.40;;;4.60;;
43152;SDS011;28756;49.064;9.290;2022-10-31T07:45:18;8.15;;;4.05;;
43152;SDS011;28756;49.064;9.290;2022-10-31T07:50:16;5.03;;;3.67;;
43152;SDS011;28756;49.064;9.290;2022-10-31T07:52:46;5.82;;;3.85;;
43152;SDS011;28756;49.064;9.290;2022-10-31T07:55:12;5.53;;;3.95;;
43152;SDS011;28756;49.064;9.290;2022-10-31T07:57:39;6.18;;;4.10;;
43152;SDS011;28756;49.064;9.290;2022-10-31T08:00:06;7.45;;;4.32;;
43152;SDS011;28756;49.064;9.290;2022-10-31T08:02:34;7.93;;;4.85;;
43152;SDS011;28756;49.064;9.290;2022-10-31T08:05:00;10.98;;;5.65;;
43152;SDS011;28756;49.064;9.290;2022-10-31T08:07:29;8.43;;;5.05;;
43152;SDS011;28756;49.064;9.290;2022-10-31T08:10:01;9.52;;;5.43;;
43152;SDS011;28756;49.064;9.290;2022-10-31T08:12:27;7.72;;;4.63;;
43152;SDS011;28756;49.064;9.290;2022-10-31T08:14:53;6.25;;;4.72;;
43152;SDS011;28756;49.064;9.290;2022-10-31T08:17:18;4.28;;;3.75;;
43152;SDS011;28756;49.064;9.290;2022-10-31T08:19:44;5.50;;;3.35;;
43152;SDS011;28756;49.064;9.290;2022-10-31T08:22:10;3.83;;;3.20;;
43152;SDS011;28756;49.064;9.290;2022-10-31T08:24:35;4.10;;;3.35;;
43152;SDS011;28756;49.064;9.290;2022-10-31T08:27:01;4.32;;;2.95;;
43152;SDS011;28756;49.064;9.290;2022-10-31T08:29:27;5.15;;;3.60;;
43152;SDS011;28756;49.064;9.290;2022-10-31T08:31:52;4.40;;;3.30;;
43152;SDS011;28756;49.064;9.290;2022-10-31T08:34:18;5.00;;;3.47;;
43152;SDS011;28756;49.064;9.290;2022-10-31T08:36:44;5.60;;;3.17;;
43152;SDS011;28756;49.064;9.290;2022-10-31T08:39:11;5.50;;;3.50;;
43152;SDS011;28756;49.064;9.290;2022-10-31T08:41:36;5.43;;;3.60;;
43152;SDS011;28756;49.064;9.290;2022-10-31T08:44:02;6.35;;;3.25;;
43152;SDS011;28756;49.064;9.290;2022-10-31T08:46:28;5.10;;;3.60;;
43152;SDS011;28756;49.064;9.290;2022-10-31T08:48:53;4.32;;;3.10;;
43152;SDS011;28756;49.064;9.290;2022-10-31T08:51:19;6.88;;;3.72;;
43152;SDS011;28756;49.064;9.290;2022-10-31T08:53:45;3.50;;;3.15;;
43152;SDS011;28756;49.064;9.290;2022-10-31T08:56:10;7.22;;;3.22;;
43152;SDS011;28756;49.064;9.290;2022-10-31T08:58:36;4.53;;;3.63;;
43152;SDS011;28756;49.064;9.290;2022-10-31T09:01:02;5.35;;;3.83;;
43152;SDS011;28756;49.064;9.290;2022-10-31T09:03:28;8.07;;;4.30;;
43152;SDS011;28756;49.064;9.290;2022-10-31T09:05:57;6.28;;;4.07;;
43152;SDS011;28756;49.064;9.290;2022-10-31T09:08:25;7.05;;;4.35;;
43152;SDS011;28756;49.064;9.290;2022-10-31T09:10:50;8.98;;;4.90;;
43152;SDS011;28756;49.064;9.290;2022-10-31T09:13:18;6.72;;;4.10;;
43152;SDS011;28756;49.064;9.290;2022-10-31T09:15:45;7.93;;;4.45;;
43152;SDS011;28756;49.064;9.290;2022-10-31T09:18:14;6.63;;;4.43;;
43152;SDS011;28756;49.064;9.290;2022-10-31T09:20:42;8.80;;;4.50;;
43152;SDS011;28756;49.064;9.290;2022-10-31T09:23:10;6.93;;;4.70;;
43152;SDS011;28756;49.064;9.290;2022-10-31T09:25:41;7.03;;;4.40;;
43152;SDS011;28756;49.064;9.290;2022-10-31T09:28:08;6.93;;;4.32;;
43152;SDS011;28756;49.064;9.290;2022-10-31T09:30:36;7.28;;;4.45;;
43152;SDS011;28756;49.064;9.290;2022-10-31T09:33:03;5.57;;;4.90;;
43152;SDS011;28756;49.064;9.290;2022-10-31T09:35:39;5.68;;;3.80;;
43152;SDS011;28756;49.064;9.290;2022-10-31T09:38:10;6.43;;;4.28;;
43152;SDS011;28756;49.064;9.290;2022-10-31T09:52:08;7.85;;;4.80;;
43152;SDS011;28756;49.064;9.290;2022-10-31T09:54:44;8.02;;;5.45;;
43152;SDS011;28756;49.064;9.290;2022-10-31T09:57:17;8.95;;;4.82;;
43152;SDS011;28756;49.064;9.290;2022-10-31T09:59:50;7.25;;;4.50;;
43152;SDS011;28756;49.064;9.290;2022-10-31T10:02:19;7.60;;;4.70;;
43152;SDS011;28756;49.064;9.290;2022-10-31T10:05:08;9.65;;;5.65;;
43152;SDS011;28756;49.064;9.290;2022-10-31T10:07:44;7.25;;;5.00;;
43152;SDS011;28756;49.064;9.290;2022-10-31T10:10:36;7.20;;;4.78;;
43152;SDS011;28756;49.064;9.290;2022-10-31T10:13:31;10.80;;;4.70;;
43152;SDS011;28756;49.064;9.290;2022-10-31T10:27:41;9.35;;;5.07;;
43152;SDS011;28756;49.064;9.290;2022-10-31T10:30:39;10.40;;;4.88;;
43152;SDS011;28756;49.064;9.290;2022-10-31T10:33:16;11.38;;;4.95;;
43152;SDS011;28756;49.064;9.290;2022-10-31T10:39:15;9.55;;;5.03;;
43152;SDS011;28756;49.064;9.290;2022-10-31T10:41:54;6.18;;;4.90;;
43152;SDS011;28756;49.064;9.290;2022-10-31T10:44:45;8.82;;;4.88;;
43152;SDS011;28756;49.064;9.290;2022-10-31T10:47:39;10.50;;;4.80;;
43152;SDS011;28756;49.064;9.290;2022-10-31T10:58:12;8.57;;;5.15;;
43152;SDS011;28756;49.064;9.290;2022-10-31T11:00:44;8.18;;;4.70;;
43152;SDS011;28756;49.064;9.290;2022-10-31T11:03:13;10.68;;;4.72;;
43152;SDS011;28756;49.064;9.290;2022-10-31T11:05:58;7.97;;;5.00;;
43152;SDS011;28756;49.064;9.290;2022-10-31T11:13:46;7.50;;;4.53;;
43152;SDS011;28756;49.064;9.290;2022-10-31T11:16:26;8.32;;;4.93;;
43152;SDS011;28756;49.064;9.290;2022-10-31T11:19:07;6.70;;;4.47;;
43152;SDS011;28756;49.064;9.290;2022-10-31T11:21:51;8.93;;;4.75;;
43152;SDS011;28756;49.064;9.290;2022-10-31T11:24:18;5.75;;;4.05;;
43152;SDS011;28756;49.064;9.290;2022-10-31T11:26:48;8.45;;;4.30;;
43152;SDS011;28756;49.064;9.290;2022-10-31T11:31:50;8.25;;;4.18;;
43152;SDS011;28756;49.064;9.290;2022-10-31T11:34:25;8.43;;;4.88;;
43152;SDS011;28756;49.064;9.290;2022-10-31T11:39:50;7.70;;;4.38;;
43152;SDS011;28756;49.064;9.290;2022-10-31T11:42:27;8.88;;;4.53;;
43152;SDS011;28756;49.064;9.290;2022-10-31T11:45:00;8.55;;;5.18;;
43152;SDS011;28756;49.064;9.290;2022-10-31T11:47:43;8.18;;;5.05;;
43152;SDS011;28756;49.064;9.290;2022-10-31T11:50:24;11.40;;;4.45;;
43152;SDS011;28756;49.064;9.290;2022-10-31T11:52:57;8.30;;;4.80;;
43152;SDS011;28756;49.064;9.290;2022-10-31T11:55:31;8.00;;;4.43;;
43152;SDS011;28756;49.064;9.290;2022-10-31T11:58:22;8.50;;;4.70;;
43152;SDS011;28756;49.064;9.290;2022-10-31T12:00:52;9.02;;;5.20;;
43152;SDS011;28756;49.064;9.290;2022-10-31T12:06:11;12.05;;;4.97;;
43152;SDS011;28756;49.064;9.290;2022-10-31T12:08:45;8.00;;;4.63;;
43152;SDS011;28756;49.064;9.290;2022-10-31T12:14:22;7.35;;;4.78;;
43152;SDS011;28756;49.064;9.290;2022-10-31T12:34:33;7.78;;;4.65;;
43152;SDS011;28756;49.064;9.290;2022-10-31T12:43:16;10.07;;;4.53;;
43152;SDS011;28756;49.064;9.290;2022-10-31T12:46:01;5.25;;;4.00;;
43152;SDS011;28756;49.064;9.290;2022-10-31T12:54:45;6.97;;;4.35;;
43152;SDS011;28756;49.064;9.290;2022-10-31T12:57:40;6.28;;;3.83;;
43152;SDS011;28756;49.064;9.290;2022-10-31T13:00:12;5.88;;;4.38;;
43152;SDS011;28756;49.064;9.290;2022-10-31T13:02:51;5.88;;;3.90;;
43152;SDS011;28756;49.064;9.290;2022-10-31T13:05:33;7.05;;;3.92;;
43152;SDS011;28756;49.064;9.290;2022-10-31T13:10:52;8.27;;;4.97;;
43152;SDS011;28756;49.064;9.290;2022-10-31T13:13:44;7.60;;;4.55;;
43152;SDS011;28756;49.064;9.290;2022-10-31T13:16:28;6.15;;;3.53;;
43152;SDS011;28756;49.064;9.290;2022-10-31T13:19:16;7.72;;;3.75;;
43152;SDS011;28756;49.064;9.290;2022-10-31T13:27:28;9.48;;;4.13;;
43152;SDS011;28756;49.064;9.290;2022-10-31T13:30:16;7.40;;;3.67;;
43152;SDS011;28756;49.064;9.290;2022-10-31T13:32:54;5.95;;;3.65;;
43152;SDS011;28756;49.064;9.290;2022-10-31T13:35:37;7.70;;;4.07;;
43152;SDS011;28756;49.064;9.290;2022-10-31T13:44:14;4.60;;;3.53;;
43152;SDS011;28756;49.064;9.290;2022-10-31T13:46:49;10.75;;;5.03;;
43152;SDS011;28756;49.064;9.290;2022-10-31T13:49:23;8.27;;;4.18;;
43152;SDS011;28756;49.064;9.290;2022-10-31T13:54:52;7.18;;;4.00;;
43152;SDS011;28756;49.064;9.290;2022-10-31T14:02:47;6.35;;;4.20;;
43152;SDS011;28756;49.064;9.290;2022-10-31T14:08:00;7.15;;;4.15;;
43152;SDS011;28756;49.064;9.290;2022-10-31T14:10:38;9.13;;;4.55;;
43152;SDS011;28756;49.064;9.290;2022-10-31T14:13:35;7.90;;;4.80;;
43152;SDS011;28756;49.064;9.290;2022-10-31T14:16:19;7.47;;;4.25;;
43152;SDS011;28756;49.064;9.290;2022-10-31T14:18:48;7.30;;;4.13;;
43152;SDS011;28756;49.064;9.290;2022-10-31T14:21:28;6.45;;;3.80;;
43152;SDS011;28756;49.064;9.290;2022-10-31T14:29:27;7.53;;;3.70;;
43152;SDS011;28756;49.064;9.290;2022-10-31T14:43:22;7.97;;;4.10;;
43152;SDS011;28756;49.064;9.290;2022-10-31T14:52:07;6.32;;;4.38;;
43152;SDS011;28756;49.064;9.290;2022-10-31T14:54:41;5.47;;;4.60;;
43152;SDS011;28756;49.064;9.290;2022-10-31T14:57:18;6.57;;;4.93;;
43152;SDS011;28756;49.064;9.290;2022-10-31T14:59:58;8.90;;;4.82;;
43152;SDS011;28756;49.064;9.290;2022-10-31T15:02:40;7.75;;;4.43;;
43152;SDS011;28756;49.064;9.290;2022-10-31T15:05:40;5.93;;;4.43;;
43152;SDS011;28756;49.064;9.290;2022-10-31T15:08:47;5.57;;;4.63;;
43152;SDS011;28756;49.064;9.290;2022-10-31T15:11:22;7.30;;;4.30;;
43152;SDS011;28756;49.064;9.290;2022-10-31T15:13:51;6.35;;;4.85;;
43152;SDS011;28756;49.064;9.290;2022-10-31T15:16:33;11.07;;;6.40;;
43152;SDS011;28756;49.064;9.290;2022-10-31T15:19:10;8.75;;;6.00;;
43152;SDS011;28756;49.064;9.290;2022-10-31T15:21:42;8.80;;;5.82;;
43152;SDS011;28756;49.064;9.290;2022-10-31T15:24:11;7.20;;;5.45;;
43152;SDS011;28756;49.064;9.290;2022-10-31T15:26:43;7.38;;;4.53;;
43152;SDS011;28756;49.064;9.290;2022-10-31T15:29:12;8.25;;;5.22;;
43152;SDS011;28756;49.064;9.290;2022-10-31T15:31:54;7.43;;;4.70;;
43152;SDS011;28756;49.064;9.290;2022-10-31T15:37:05;11.02;;;7.03;;
43152;SDS011;28756;49.064;9.290;2022-10-31T15:39:39;11.15;;;5.72;;
43152;SDS011;28756;49.064;9.290;2022-10-31T15:42:22;8.57;;;5.90;;
43152;SDS011;28756;49.064;9.290;2022-10-31T15:47:30;8.13;;;5.82;;
43152;SDS011;28756;49.064;9.290;2022-10-31T15:50:01;7.60;;;5.93;;
43152;SDS011;28756;49.064;9.290;2022-10-31T15:52:40;8.43;;;6.00;;
43152;SDS011;28756;49.064;9.290;2022-10-31T15:57:41;8.60;;;5.47;;
43152;SDS011;28756;49.064;9.290;2022-10-31T16:00:21;9.32;;;5.32;;
43152;SDS011;28756;49.064;9.290;2022-10-31T16:05:46;8.63;;;5.55;;
43152;SDS011;28756;49.064;9.290;2022-10-31T16:10:56;8.30;;;5.57;;
43152;SDS011;28756;49.064;9.290;2022-10-31T16:13:28;7.13;;;4.70;;
43152;SDS011;28756;49.064;9.290;2022-10-31T16:15:58;11.85;;;6.45;;
43152;SDS011;28756;49.064;9.290;2022-10-31T16:18:28;10.60;;;6.28;;
43152;SDS011;28756;49.064;9.290;2022-10-31T16:21:01;11.73;;;6.82;;
43152;SDS011;28756;49.064;9.290;2022-10-31T16:23:27;7.35;;;5.70;;
43152;SDS011;28756;49.064;9.290;2022-10-31T16:25:53;8.30;;;5.70;;
43152;SDS011;28756;49.064;9.290;2022-10-31T16:28:24;12.25;;;6.78;;
43152;SDS011;28756;49.064;9.290;2022-10-31T16:30:55;7.93;;;6.35;;
43152;SDS011;28756;49.064;9.290;2022-10-31T16:33:27;15.32;;;6.18;;
43152;SDS011;28756;49.064;9.290;2022-10-31T16:35:56;8.02;;;6.00;;
43152;SDS011;28756;49.064;9.290;2022-10-31T16:38:23;9.70;;;6.22;;
43152;SDS011;28756;49.064;9.290;2022-10-31T16:40:50;10.75;;;5.95;;
43152;SDS011;28756;49.064;9.290;2022-10-31T16:43:17;8.10;;;5.68;;
43152;SDS011;28756;49.064;9.290;2022-10-31T16:45:45;10.02;;;5.72;;
43152;SDS011;28756;49.064;9.290;2022-10-31T16:48:14;10.38;;;5.70;;
43152;SDS011;28756;49.064;9.290;2022-10-31T16:50:49;10.20;;;5.95;;
43152;SDS011;28756;49.064;9.290;2022-10-31T16:53:17;14.48;;;8.65;;
43152;SDS011;28756;49.064;9.290;2022-10-31T16:55:44;10.52;;;7.30;;
43152;SDS011;28756;49.064;9.290;2022-10-31T16:58:23;7.65;;;6.07;;
43152;SDS011;28756;49.064;9.290;2022-10-31T17:00:58;7.82;;;4.68;;
43152;SDS011;28756;49.064;9.290;2022-10-31T17:03:25;7.22;;;4.35;;
43152;SDS011;28756;49.064;9.290;2022-10-31T17:05:52;8.75;;;4.45;;
43152;SDS011;28756;49.064;9.290;2022-10-31T17:08:20;11.10;;;5.65;;
43152;SDS011;28756;49.064;9.290;2022-10-31T17:10:46;9.60;;;5.47;;
43152;SDS011;28756;49.064;9.290;2022-10-31T17:13:19;9.13;;;5.13;;
43152;SDS011;28756;49.064;9.290;2022-10-31T17:15:52;8.05;;;5.20;;
43152;SDS011;28756;49.064;9.290;2022-10-31T17:18:22;9.45;;;4.90;;
43152;SDS011;28756;49.064;9.290;2022-10-31T17:20:48;7.53;;;4.80;;
43152;SDS011;28756;49.064;9.290;2022-10-31T17:23:15;7.15;;;4.60;;
43152;SDS011;28756;49.064;9.290;2022-10-31T17:25:42;6.70;;;4.43;;
43152;SDS011;28756;49.064;9.290;2022-10-31T17:28:14;7.57;;;5.00;;
43152;SDS011;28756;49.064;9.290;2022-10-31T17:30:40;6.50;;;4.60;;
43152;SDS011;28756;49.064;9.290;2022-10-31T17:33:11;6.60;;;4.72;;
43152;SDS011;28756;49.064;9.290;2022-10-31T17:35:39;10.07;;;5.68;;
43152;SDS011;28756;49.064;9.290;2022-10-31T17:38:09;8.70;;;5.53;;
43152;SDS011;28756;49.064;9.290;2022-10-31T17:40:36;7.53;;;5.03;;
43152;SDS011;28756;49.064;9.290;2022-10-31T17:43:04;9.95;;;5.45;;
43152;SDS011;28756;49.064;9.290;2022-10-31T17:45:29;7.80;;;5.50;;
43152;SDS011;28756;49.064;9.290;2022-10-31T17:47:56;39.95;;;22.15;;
43152;SDS011;28756;49.064;9.290;2022-10-31T17:50:22;22.77;;;16.00;;
43152;SDS011;28756;49.064;9.290;2022-10-31T17:52:50;26.38;;;15.80;;
43152;SDS011;28756;49.064;9.290;2022-10-31T17:55:17;17.40;;;11.30;;
43152;SDS011;28756;49.064;9.290;2022-10-31T17:57:43;11.80;;;8.77;;
43152;SDS011;28756;49.064;9.290;2022-10-31T18:00:11;10.40;;;7.13;;
43152;SDS011;28756;49.064;9.290;2022-10-31T18:02:39;8.77;;;5.72;;
43152;SDS011;28756;49.064;9.290;2022-10-31T18:05:05;8.48;;;5.10;;